createdAt,value
2022-08-05T00:01:29.873Z,2.33
2022-08-05T00:06:39.748Z,2.28
2022-08-05T00:11:49.393Z,2.42
2022-08-05T00:16:57.800Z,2.40
2022-08-05T00:22:00.974Z,2.50
2022-08-05T00:27:04.569Z,2.13
2022-08-05T00:32:12.948Z,2.50
2022-08-05T00:37:18.249Z,2.80
2022-08-05T00:42:31.798Z,2.70
2022-08-05T00:47:56.729Z,3.13
2022-08-05T00:52:57.460Z,2.60
2022-08-05T00:57:59.846Z,3.35
2022-08-05T01:03:01.584Z,3.22
2022-08-05T01:08:42.369Z,2.90
2022-08-05T01:13:58.950Z,3.63
2022-08-05T01:19:11.281Z,3.00
2022-08-05T01:24:32.722Z,3.10
2022-08-05T01:29:39.084Z,3.28
2022-08-05T01:34:49.678Z,3.78
2022-08-05T01:39:53.394Z,3.63
2022-08-05T01:45:02.202Z,3.70
2022-08-05T01:50:07.230Z,3.30
2022-08-05T01:55:14.583Z,3.90
2022-08-05T02:00:18.619Z,3.58
2022-08-05T02:05:23.551Z,3.53
2022-08-05T02:10:28.704Z,3.17
2022-08-05T02:15:35.726Z,3.42
2022-08-05T02:20:47.432Z,3.60
2022-08-05T02:25:52.178Z,3.08
2022-08-05T02:30:59.030Z,3.50
2022-08-05T02:36:03.065Z,3.60
2022-08-05T02:41:17.277Z,3.83
2022-08-05T02:46:27.621Z,3.60
2022-08-05T02:52:03.966Z,3.87
2022-08-05T02:56:52.508Z,3.28
2022-08-05T03:01:58.217Z,2.88
2022-08-05T03:07:00.735Z,3.70
2022-08-05T03:12:02.896Z,3.80
2022-08-05T03:17:09.111Z,3.00
2022-08-05T03:22:16.619Z,3.55
2022-08-05T03:27:22.972Z,3.63
2022-08-05T03:32:33.797Z,3.22
2022-08-05T03:37:45.794Z,3.72
2022-08-05T03:42:52.052Z,3.30
2022-08-05T03:47:56.880Z,4.00
2022-08-05T03:55:50.894Z,3.33
2022-08-05T03:58:30.392Z,3.00
2022-08-05T04:03:38.131Z,3.35
2022-08-05T04:08:40.585Z,3.22
2022-08-05T04:13:50.281Z,3.47
2022-08-05T04:18:57.614Z,3.38
2022-08-05T04:24:06.591Z,3.08
2022-08-05T04:29:10.528Z,3.75
2022-08-05T04:34:19.685Z,3.40
2022-08-05T04:39:36.437Z,3.97
2022-08-05T04:44:38.492Z,3.42
2022-08-05T04:50:02.598Z,3.13
2022-08-05T04:55:14.784Z,3.88
2022-08-05T05:00:18.458Z,3.10
2022-08-05T05:05:29.166Z,2.90
2022-08-05T05:10:33.266Z,2.40
2022-08-05T05:15:57.634Z,2.60
2022-08-05T05:20:59.207Z,3.08
2022-08-05T05:26:02.481Z,2.92
2022-08-05T05:31:05.673Z,3.35
2022-08-05T05:36:15.688Z,3.67
2022-08-05T05:41:18.508Z,2.97
2022-08-05T05:46:20.665Z,2.97
2022-08-05T05:51:25.979Z,3.40
2022-08-05T05:56:33.065Z,3.13
2022-08-05T06:01:38.906Z,2.80
2022-08-05T06:06:46.659Z,2.30
2022-08-05T06:12:01.457Z,2.10
2022-08-05T06:17:22.109Z,2.38
2022-08-05T06:22:29.790Z,2.30
2022-08-05T06:28:10.686Z,2.15
2022-08-05T06:32:57.886Z,2.50
2022-08-05T06:38:04.278Z,2.30
2022-08-05T06:43:58.694Z,2.40
2022-08-05T06:48:55.797Z,1.98
2022-08-05T06:54:01.697Z,2.10
2022-08-05T06:59:09.527Z,2.30
2022-08-05T07:04:13.928Z,2.33
2022-08-05T07:09:17.398Z,2.13
2022-08-05T07:14:30.342Z,2.00
2022-08-05T07:24:58.994Z,2.92
2022-08-05T07:30:27.919Z,2.55
2022-08-05T07:36:02.606Z,2.22
2022-08-05T07:40:47.531Z,2.95
2022-08-05T07:45:58.753Z,2.85
2022-08-05T07:51:01.249Z,2.97
2022-08-05T07:56:59.930Z,2.42
2022-08-05T08:01:29.881Z,2.60
2022-08-05T08:06:32.310Z,2.25
2022-08-05T08:11:51.265Z,2.33
2022-08-05T08:16:57.352Z,2.03
2022-08-05T08:21:59.352Z,2.20
2022-08-05T08:27:07.120Z,2.33
2022-08-05T08:32:10.788Z,2.45
2022-08-05T08:37:13.110Z,2.35
2022-08-05T08:42:34.216Z,2.47
2022-08-05T08:48:05.917Z,2.53
2022-08-05T08:53:12.228Z,2.15
2022-08-05T08:58:16.993Z,2.30
2022-08-05T09:03:21.750Z,2.35
2022-08-05T09:08:26.519Z,2.42
2022-08-05T09:13:31.769Z,2.58
2022-08-05T09:18:44.292Z,2.25
2022-08-05T09:23:46.539Z,2.20
2022-08-05T09:28:59.177Z,2.10
2022-08-05T09:34:04.550Z,2.17
2022-08-05T09:39:16.540Z,1.92
2022-08-05T09:44:37.598Z,2.40
2022-08-05T09:50:00.823Z,2.53
2022-08-05T09:55:57.054Z,2.00
2022-08-05T10:00:30.930Z,2.13
2022-08-05T10:05:33.558Z,2.20
2022-08-05T10:10:38.727Z,2.22
2022-08-05T10:15:42.665Z,1.70
2022-08-05T10:20:48.407Z,2.22
2022-08-05T10:25:50.686Z,2.13
2022-08-05T10:32:52.720Z,2.20
2022-08-05T10:36:18.394Z,2.35
2022-08-05T10:41:46.436Z,2.63
2022-08-05T10:46:53.880Z,2.50
2022-08-05T10:52:00.237Z,2.53
2022-08-05T10:57:04.380Z,2.60
2022-08-05T11:02:14.969Z,2.20
2022-08-05T11:08:03.277Z,2.08
2022-08-05T11:12:55.740Z,2.03
2022-08-05T11:18:11.700Z,2.13
2022-08-05T11:24:05.317Z,1.90
2022-08-05T11:28:58.069Z,2.03
2022-08-05T11:34:09.124Z,1.98
2022-08-05T11:39:38.142Z,1.90
2022-08-05T11:44:53.943Z,2.13
2022-08-05T11:49:59.042Z,2.10
2022-08-05T11:55:07.687Z,2.00
2022-08-05T12:00:27.554Z,2.00
2022-08-05T12:05:39.966Z,1.77
2022-08-05T12:10:47.706Z,1.63
2022-08-05T12:15:50.906Z,1.45
2022-08-05T12:21:10.145Z,1.70
2022-08-05T12:26:12.493Z,1.52
2022-08-05T12:31:23.208Z,1.65
2022-08-05T12:36:37.933Z,1.25
2022-08-05T12:41:43.541Z,1.55
2022-08-05T12:46:54.193Z,1.92
2022-08-05T12:52:13.876Z,1.95
2022-08-05T12:57:19.740Z,1.50
2022-08-05T13:02:30.775Z,1.70
2022-08-05T13:07:59.325Z,1.95
2022-08-05T13:12:58.383Z,1.90
2022-08-05T13:18:01.350Z,1.65
2022-08-05T13:23:07.133Z,1.75
2022-08-05T13:28:10.629Z,1.90
2022-08-05T13:33:14.265Z,2.17
2022-08-05T13:38:38.514Z,1.83
2022-08-05T13:43:54.534Z,2.20
2022-08-05T13:49:00.883Z,1.70
2022-08-05T13:54:12.258Z,1.77
2022-08-05T13:59:19.452Z,1.75
2022-08-05T14:04:26.720Z,1.60
2022-08-05T14:09:30.569Z,1.77
2022-08-05T14:14:32.651Z,2.03
2022-08-05T14:19:55.393Z,1.83
2022-08-05T14:24:59.844Z,2.03
2022-08-05T14:30:01.687Z,1.90
2022-08-05T14:35:10.693Z,1.88
2022-08-05T14:40:16.836Z,2.10
2022-08-05T14:45:19.324Z,1.88
2022-08-05T14:50:21.010Z,2.17
2022-08-05T14:55:24.747Z,2.10
2022-08-05T15:00:29.427Z,2.17
2022-08-05T15:06:07.925Z,2.95
2022-08-05T15:10:56.244Z,2.33
2022-08-05T15:15:58.267Z,2.53
2022-08-05T15:21:07.437Z,2.35
2022-08-05T15:26:11.649Z,2.40
2022-08-05T15:31:13.770Z,2.90
2022-08-05T15:36:24.227Z,2.70
2022-08-05T15:41:56.443Z,2.65
2022-08-05T15:46:52.601Z,2.60
2022-08-05T15:52:04.492Z,2.72
2022-08-05T15:57:18.149Z,2.53
2022-08-05T16:02:25.592Z,2.42
2022-08-05T16:07:29.646Z,2.50
2022-08-05T16:12:33.521Z,2.90
2022-08-05T16:17:35.935Z,2.72
2022-08-05T16:22:38.341Z,3.25
2022-08-05T16:27:59.879Z,3.28
2022-08-05T16:33:05.009Z,2.72
2022-08-05T16:38:24.055Z,3.30
2022-08-05T16:43:32.190Z,3.00
2022-08-05T16:48:35.497Z,2.63
2022-08-05T16:54:04.180Z,2.60
2022-08-05T16:59:08.107Z,2.00
2022-08-05T17:04:10.365Z,1.85
2022-08-05T17:09:12.098Z,1.50
2022-08-05T17:14:34.307Z,1.43
2022-08-05T17:19:40.043Z,1.00
2022-08-05T17:24:46.413Z,0.90
2022-08-05T17:30:03.979Z,0.93
2022-08-05T17:35:07.421Z,0.90
2022-08-05T17:40:12.595Z,0.70
2022-08-05T17:45:18.019Z,0.80
2022-08-05T17:50:28.826Z,0.70
2022-08-05T17:55:38.001Z,0.60
2022-08-05T18:00:47.892Z,0.53
2022-08-05T18:05:53.595Z,0.90
2022-08-05T18:10:56.369Z,0.63
2022-08-05T18:16:00.498Z,0.50
2022-08-05T18:21:05.135Z,0.80
2022-08-05T18:26:18.179Z,0.73
2022-08-05T18:31:22.634Z,0.67
2022-08-05T18:36:28.047Z,0.87
2022-08-05T18:41:55.477Z,0.80
2022-08-05T18:46:54.110Z,0.70
2022-08-05T18:52:04.810Z,0.80
2022-08-05T18:57:10.940Z,0.70
2022-08-05T19:02:27.828Z,0.67
2022-08-05T19:07:42.329Z,0.77
2022-08-05T19:12:47.669Z,0.70
2022-08-05T19:17:59.024Z,0.60
2022-08-05T19:24:04.189Z,0.60
2022-08-05T19:28:34.507Z,0.57
2022-08-05T19:33:37.838Z,0.67
2022-08-05T19:38:42.215Z,0.70
2022-08-05T19:44:07.011Z,0.80
2022-08-05T19:49:12.488Z,0.77
2022-08-05T19:54:26.635Z,0.70
2022-08-05T20:00:00.590Z,0.60
2022-08-05T20:04:59.646Z,0.70
2022-08-05T20:10:04.746Z,0.50
2022-08-05T20:15:08.770Z,0.70
2022-08-05T20:20:13.099Z,0.90
2022-08-05T20:25:14.810Z,0.70
2022-08-05T20:30:18.248Z,0.60
2022-08-05T20:35:23.262Z,0.87
2022-08-05T20:40:25.692Z,0.90
2022-08-05T20:45:56.478Z,1.00
2022-08-05T20:50:52.576Z,0.80
2022-08-05T20:56:07.965Z,0.93
2022-08-05T21:01:11.381Z,1.03
2022-08-05T21:06:28.519Z,0.97
2022-08-05T21:12:06.588Z,1.17
2022-08-05T21:16:54.883Z,1.10
2022-08-05T21:21:58.165Z,1.00
2022-08-05T21:27:00.076Z,0.87
2022-08-05T21:32:03.529Z,1.20
2022-08-05T21:37:06.985Z,1.00
2022-08-05T21:42:30.775Z,1.20
2022-08-05T21:47:55.640Z,0.93
2022-08-05T21:52:59.173Z,1.27
2022-08-05T21:58:10.492Z,1.90
2022-08-05T22:03:13.850Z,1.20
2022-08-05T22:08:22.449Z,1.23
2022-08-05T22:14:34.342Z,1.30
2022-08-05T22:18:49.028Z,1.20
2022-08-05T22:24:01.190Z,1.13
2022-08-05T22:29:06.547Z,0.90
2022-08-05T22:34:08.530Z,1.10
2022-08-05T22:39:16.344Z,1.07
2022-08-05T22:44:19.235Z,1.27
2022-08-05T22:50:17.431Z,1.40
2022-08-05T22:54:48.951Z,1.13
2022-08-05T22:59:54.141Z,1.03
2022-08-05T23:04:56.456Z,0.80
2022-08-05T23:10:02.037Z,1.10
2022-08-05T23:15:09.012Z,1.00
2022-08-05T23:20:17.505Z,0.70
2022-08-05T23:25:51.905Z,0.50
2022-08-05T23:30:53.663Z,0.50
2022-08-05T23:35:56.665Z,0.30
2022-08-05T23:41:00.192Z,0.83
2022-08-05T23:46:05.077Z,0.40
2022-08-05T23:51:22.103Z,0.60
2022-08-05T23:56:27.323Z,0.50
